Time;durP1;ratioP1;P1;durP2;ratioP2;P2;SDS_P1;SDS_P2;PMS_P1;PMS_P2;Temp;Humidity;BMP_temperature;BMP_pressure;BME280_temperature;BME280_humidity;BME280_pressure;Samples;Min_cycle;Max_cycle;Signal;HPM_P1;HPM_P2
2023/10/12 00:01:59;;;;;;;7.18;3.25;;;;;;;14.51;54.42;96128.88;4992364;28;20034;-75
2023/10/12 00:04:35;;;;;;;10.13;3.83;;;;;;;14.40;54.50;96130.00;5010213;28;20073;-75
2023/10/12 00:07:10;;;;;;;9.02;3.80;;;;;;;14.26;54.36;96103.91;4992094;28;20446;-76
2023/10/12 00:09:36;;;;;;;8.20;3.72;;;;;;;14.49;54.10;96123.84;4992274;28;20038;-75
2023/10/12 00:12:07;;;;;;;7.93;3.95;;;;;;;14.31;54.36;96113.72;5021328;28;20470;-76
2023/10/12 00:14:34;;;;;;;10.55;4.40;;;;;;;14.26;54.54;96103.09;5016677;28;20046;-75
2023/10/12 00:17:00;;;;;;;10.65;3.95;;;;;;;13.91;55.70;96110.16;4991925;28;20124;-75
2023/10/12 00:19:26;;;;;;;6.70;3.72;;;;;;;14.08;55.36;96120.50;4991651;28;20164;-76
2023/10/12 00:22:08;;;;;;;6.90;3.95;;;;;;;14.15;55.24;96109.53;4992172;28;20049;-75
2023/10/12 00:24:33;;;;;;;7.25;3.88;;;;;;;14.03;55.17;96087.72;5000452;28;20060;-76
2023/10/12 00:26:59;;;;;;;12.52;4.18;;;;;;;14.01;54.83;96077.31;4991089;28;20513;-75
2023/10/12 00:29:24;;;;;;;8.73;4.07;;;;;;;13.97;54.96;96060.25;4991796;28;20044;-75
2023/10/12 00:31:52;;;;;;;9.48;4.00;;;;;;;14.19;54.61;96110.56;4992102;28;20038;-75
2023/10/12 00:34:23;;;;;;;16.23;3.92;;;;;;;14.03;54.84;96072.53;5010020;28;20554;-76
2023/10/12 00:36:52;;;;;;;11.18;4.28;;;;;;;14.21;54.92;96092.44;5010046;28;20037;-76
2023/10/12 00:39:27;;;;;;;8.60;4.60;;;;;;;14.12;54.62;96068.19;5001473;28;20045;-75
2023/10/12 00:41:55;;;;;;;9.73;4.38;;;;;;;14.11;54.78;96074.59;5017436;28;20413;-75
2023/10/12 00:44:26;;;;;;;8.70;4.13;;;;;;;13.65;55.17;96009.22;5008262;28;20045;-75
2023/10/12 00:46:58;;;;;;;12.57;4.03;;;;;;;14.06;55.00;96085.28;5009954;28;20038;-75
2023/10/12 00:49:29;;;;;;;7.72;4.22;;;;;;;13.74;55.13;96031.53;5009670;28;20042;-75
2023/10/12 00:52:07;;;;;;;11.75;4.93;;;;;;;14.05;54.77;96074.88;5011567;28;20054;-75
2023/10/12 00:57:03;;;;;;;11.98;3.17;;;;;;;14.04;54.67;96078.63;5029882;28;20479;-76
2023/10/12 00:59:39;;;;;;;12.82;3.83;;;;;;;14.05;54.60;96086.34;5033148;28;20103;-75
2023/10/12 01:02:12;;;;;;;7.13;3.50;;;;;;;13.99;54.92;96066.13;5015037;28;20077;-75
2023/10/12 01:04:41;;;;;;;14.75;4.28;;;;;;;14.06;54.39;96087.97;5033223;28;20048;-76
2023/10/12 01:07:07;;;;;;;11.93;6.20;;;;;;;14.01;54.64;96068.53;5015081;28;20123;-75
2023/10/12 01:09:39;;;;;;;10.75;4.07;;;;;;;14.12;54.55;96076.19;5032936;28;20468;-75
2023/10/12 01:12:17;;;;;;;11.35;3.75;;;;;;;13.64;54.30;96013.75;5033196;28;20119;-75
2023/10/12 01:14:47;;;;;;;10.65;4.10;;;;;;;13.85;54.67;96054.44;5014901;28;20033;-75
2023/10/12 01:17:29;;;;;;;9.07;3.78;;;;;;;13.71;54.68;96048.91;5014617;28;20069;-75
2023/10/12 01:19:55;;;;;;;;;;;;;;;13.97;54.38;96073.59;5032946;28;20049;-75
2023/10/12 01:22:27;;;;;;;18.73;4.90;;;;;;;13.75;54.72;96043.81;5014890;28;20012;-76
2023/10/12 01:27:21;;;;;;;14.88;3.95;;;;;;;13.76;54.81;96075.53;5032610;28;20041;-76
2023/10/12 01:29:47;;;;;;;6.55;3.33;;;;;;;13.77;54.70;96066.47;5014466;28;20483;-75
2023/10/12 01:34:44;;;;;;;9.93;3.97;;;;;;;13.62;54.40;96055.06;5032652;28;20456;-75
2023/10/12 01:37:22;;;;;;;11.75;3.67;;;;;;;13.65;54.57;96065.19;5014526;28;20048;-75
2023/10/12 01:47:55;;;;;;;8.38;2.92;;;;;;;13.61;54.14;96061.44;5032501;28;20103;-75
2023/10/12 01:50:24;;;;;;;9.40;3.30;;;;;;;13.32;54.57;96035.41;5032500;28;20038;-75
2023/10/12 01:52:52;;;;;;;12.00;3.78;;;;;;;13.24;54.20;96019.97;5019891;28;20048;-76
2023/10/12 01:55:31;;;;;;;9.38;3.47;;;;;;;13.60;54.20;96075.84;5001943;28;20100;-76
2023/10/12 01:57:58;;;;;;;11.43;3.38;;;;;;;13.28;55.26;96074.28;5030304;28;20042;-75
2023/10/12 02:00:39;;;;;;;8.07;3.50;;;;;;;13.24;55.26;96075.91;5013480;28;20045;-75
2023/10/12 02:05:58;;;;;;;6.38;3.22;;;;;;;12.91;55.35;96029.28;5031779;28;20431;-76
2023/10/12 02:08:32;;;;;;;9.57;4.00;;;;;;;13.07;55.11;96049.50;5019180;28;20037;-76
2023/10/12 02:11:10;;;;;;;11.10;3.38;;;;;;;13.09;55.13;96057.25;4993899;28;20432;-76
2023/10/12 02:13:36;;;;;;;8.88;3.75;;;;;;;13.16;55.03;96065.78;4993993;28;20068;-75
2023/10/12 02:16:12;;;;;;;11.80;3.78;;;;;;;13.00;55.50;96056.97;4993739;28;20600;-76
2023/10/12 02:18:38;;;;;;;5.43;2.97;;;;;;;13.01;54.93;96050.59;5012086;28;20159;-76
2023/10/12 02:23:54;;;;;;;9.35;3.58;;;;;;;13.08;55.07;96064.44;5012120;28;20485;-76
2023/10/12 02:26:30;;;;;;;9.27;3.70;;;;;;;13.23;55.17;96084.97;5018122;28;20037;-76
2023/10/12 02:29:08;;;;;;;7.03;3.50;;;;;;;13.19;54.97;96081.25;5013130;28;20040;-76
2023/10/12 02:34:17;;;;;;;14.57;3.65;;;;;;;13.06;55.19;96063.09;5031466;28;20033;-76
2023/10/12 02:39:37;;;;;;;7.53;3.85;;;;;;;13.20;55.15;96071.41;5031153;28;20552;-76
2023/10/12 02:42:38;;;;;;;7.15;3.15;;;;;;;12.87;55.36;96035.41;5013305;28;20131;-75
2023/10/12 02:47:22;;;;;;;8.93;3.50;;;;;;;13.09;55.46;96083.88;5031128;28;20111;-75
2023/10/12 02:50:22;;;;;;;8.77;3.65;;;;;;;12.93;55.85;96072.41;5031135;28;20419;-75
2023/10/12 02:52:44;;;;;;;12.30;3.78;;;;;;;12.87;56.17;96070.03;5030901;28;20061;-76
2023/10/12 02:55:33;;;;;;;18.48;3.78;;;;;;;12.98;56.02;96088.38;5013083;28;20068;-75
2023/10/12 02:58:17;;;;;;;10.45;3.30;;;;;;;12.84;55.90;96067.88;5014646;28;20270;-76
2023/10/12 03:03:19;;;;;;;9.15;3.55;;;;;;;12.65;56.26;96044.47;5028394;28;20515;-75
2023/10/12 03:05:46;;;;;;;7.88;3.50;;;;;;;12.51;56.57;96030.06;5030698;28;20053;-75
2023/10/12 03:08:14;;;;;;;12.45;4.32;;;;;;;12.17;56.74;96003.16;5009686;28;20034;-75
2023/10/12 03:10:51;;;;;;;10.88;4.03;;;;;;;12.72;56.82;96078.81;5012634;28;20041;-76
2023/10/12 03:13:25;;;;;;;14.32;4.32;;;;;;;12.13;57.07;95988.00;5012389;28;20132;-75
2023/10/12 03:15:57;;;;;;;14.88;3.72;;;;;;;12.55;57.11;96071.06;5012525;28;20396;-75
2023/10/12 03:18:26;;;;;;;15.13;4.15;;;;;;;12.69;57.16;96071.34;5026165;28;20042;-75
2023/10/12 03:21:11;;;;;;;14.48;3.85;;;;;;;12.68;57.13;96067.06;4998611;28;20504;-78
2023/10/12 03:23:38;;;;;;;10.35;4.60;;;;;;;12.22;57.37;96011.13;5030034;28;20053;-79
2023/10/12 03:28:45;;;;;;;13.93;4.15;;;;;;;12.54;57.34;96066.78;5022247;28;20050;-78
2023/10/12 03:31:15;;;;;;;12.18;4.97;;;;;;;12.53;57.44;96059.88;5007771;28;20459;-80
2023/10/12 03:33:53;;;;;;;15.55;5.78;;;;;;;12.35;57.83;96042.56;5011588;28;20073;-79
2023/10/12 03:36:25;;;;;;;11.85;4.88;;;;;;;12.32;57.90;96042.28;4996851;28;20484;-80
2023/10/12 03:41:55;;;;;;;10.98;4.72;;;;;;;12.22;58.01;96039.59;4986949;28;20049;-79
2023/10/12 03:44:36;;;;;;;9.73;4.22;;;;;;;12.31;58.51;96081.38;5013550;28;20037;-79
2023/10/12 03:47:15;;;;;;;16.23;4.90;;;;;;;11.86;59.08;96050.13;5014177;28;20037;-79
2023/10/12 03:52:39;;;;;;;13.68;5.43;;;;;;;11.81;59.59;96039.47;5034830;28;20154;-79
2023/10/12 03:57:42;;;;;;;14.57;4.95;;;;;;;11.75;59.55;96026.44;5052325;28;20037;-79
2023/10/12 04:05:21;;;;;;;13.23;5.95;;;;;;;12.06;59.55;96080.50;5018110;28;20061;-78
2023/10/12 04:08:00;;;;;;;13.07;5.57;;;;;;;12.09;59.56;96083.44;4993546;28;20046;-78
2023/10/12 04:18:42;;;;;;;18.17;6.63;;;;;;;11.52;60.82;96067.44;5013129;28;20685;-78
2023/10/12 04:21:17;;;;;;;21.90;6.80;;;;;;;11.71;60.92;96086.44;4995742;28;20077;-79
2023/10/12 04:23:46;;;;;;;20.88;6.88;;;;;;;11.60;61.05;96051.81;5014796;28;20053;-79
2023/10/12 04:28:43;;;;;;;19.38;6.30;;;;;;;11.70;60.59;96071.53;4996609;28;20125;-77
2023/10/12 04:33:44;;;;;;;19.10;6.20;;;;;;;11.81;60.90;96081.19;4996027;28;20038;-75
2023/10/12 04:36:23;;;;;;;13.50;5.88;;;;;;;11.77;60.75;96074.78;5008018;28;20062;-76
2023/10/12 04:39:03;;;;;;;9.68;5.15;;;;;;;11.77;60.28;96078.25;4996707;28;20132;-77
2023/10/12 04:41:38;;;;;;;16.27;6.22;;;;;;;11.53;60.67;96051.25;5009610;28;20144;-76
2023/10/12 04:46:59;;;;;;;16.17;4.95;;;;;;;11.50;60.12;96027.09;4999440;28;21020;-75
2023/10/12 04:57:26;;;;;;;17.70;4.60;;;;;;;11.65;58.96;96045.75;5005017;28;20084;-75
2023/10/12 05:00:24;;;;;;;12.48;4.25;;;;;;;11.81;59.08;96078.53;4976302;28;20104;-76
2023/10/12 05:05:37;;;;;;;8.88;4.53;;;;;;;11.16;59.07;95998.22;4984582;28;20045;-76
2023/10/12 05:08:05;;;;;;;16.70;4.68;;;;;;;11.68;59.38;96086.94;4982804;28;20603;-75
2023/10/12 05:10:36;;;;;;;12.07;4.07;;;;;;;11.75;59.02;96082.25;4994238;28;20387;-76
2023/10/12 05:13:05;;;;;;;10.38;4.63;;;;;;;11.40;58.99;96043.75;5002253;28;20034;-77
2023/10/12 05:15:42;;;;;;;14.85;5.13;;;;;;;11.77;58.67;96082.75;4999605;28;20037;-76
2023/10/12 05:18:11;;;;;;;14.90;4.15;;;;;;;11.75;59.19;96088.31;5018956;28;20106;-77
2023/10/12 05:20:42;;;;;;;9.50;5.00;;;;;;;11.76;59.30;96097.91;5017594;28;20088;-76
2023/10/12 05:23:10;;;;;;;16.92;5.32;;;;;;;11.71;59.02;96086.44;5021178;28;20566;-77
2023/10/12 05:26:07;;;;;;;14.07;4.95;;;;;;;11.60;58.93;96066.97;5022086;28;20093;-74
2023/10/12 05:28:27;;;;;;;14.55;5.57;;;;;;;11.84;58.80;96102.72;5015606;28;20040;-75
2023/10/12 05:30:59;;;;;;;7.57;4.82;;;;;;;11.48;59.51;96114.19;5001148;28;20762;-77
2023/10/12 05:36:08;;;;;;;13.43;5.75;;;;;;;11.59;59.26;96092.72;5013555;28;20103;-77
2023/10/12 05:38:35;;;;;;;17.85;6.40;;;;;;;11.36;59.47;96049.84;4989313;28;20072;-75
2023/10/12 05:41:08;;;;;;;12.07;6.30;;;;;;;11.75;59.39;96111.47;5003963;28;20042;-74
2023/10/12 05:43:39;;;;;;;20.65;7.15;;;;;;;11.73;59.23;96100.25;4972432;28;20045;-73
2023/10/12 05:46:13;;;;;;;15.85;6.35;;;;;;;11.74;59.38;96102.69;5009511;28;20145;-73
2023/10/12 05:48:46;;;;;;;24.10;8.35;;;;;;;11.89;58.91;96113.41;5006398;28;20053;-73
2023/10/12 05:51:21;;;;;;;30.75;7.95;;;;;;;11.91;59.29;96118.44;5010406;28;20045;-73
2023/10/12 05:53:48;;;;;;;14.65;6.80;;;;;;;11.91;58.82;96115.78;5003048;28;20057;-74
2023/10/12 05:56:18;;;;;;;;;;;;;;;11.92;59.07;96112.88;5004295;28;21118;-74
2023/10/12 05:58:44;;;;;;;16.95;7.72;;;;;;;11.72;59.33;96088.03;5008494;28;19929;-75
2023/10/12 06:01:10;;;;;;;18.08;8.38;;;;;;;11.87;59.47;96112.84;5009600;28;20415;-76
2023/10/12 06:03:46;;;;;;;15.82;7.53;;;;;;;11.78;59.30;96093.13;4978212;28;20159;-76
2023/10/12 06:06:12;;;;;;;24.90;8.73;;;;;;;11.77;59.33;96090.72;4997126;28;20041;-75
2023/10/12 06:08:40;;;;;;;21.80;7.90;;;;;;;11.68;59.17;96082.41;5000432;28;20621;-75
2023/10/12 06:11:09;;;;;;;31.85;7.78;;;;;;;11.89;59.11;96094.81;4956291;28;20529;-78
2023/10/12 06:13:41;;;;;;;17.08;8.38;;;;;;;12.01;58.99;96115.84;4990565;28;20053;-76
2023/10/12 06:16:14;;;;;;;27.83;7.93;;;;;;;11.82;59.24;96088.13;4996107;28;20112;-77
2023/10/12 06:18:44;;;;;;;21.23;8.43;;;;;;;11.81;59.06;96097.16;5009898;28;20811;-76
2023/10/12 06:21:17;;;;;;;32.33;8.48;;;;;;;11.89;59.71;96112.59;5008212;28;20053;-77
2023/10/12 06:23:44;;;;;;;44.17;8.65;;;;;;;11.49;59.18;96025.47;4995340;28;20380;-76
2023/10/12 06:26:17;;;;;;;17.60;8.20;;;;;;;11.54;59.24;96052.88;4989138;28;20048;-75
2023/10/12 06:28:43;;;;;;;24.40;7.88;;;;;;;12.06;59.21;96107.06;4996456;28;20040;-77
2023/10/12 06:31:09;;;;;;;19.90;8.13;;;;;;;12.11;58.89;96110.56;4999939;28;20041;-76
2023/10/12 06:33:40;;;;;;;20.80;8.45;;;;;;;12.06;58.94;96085.81;5001114;28;20049;-74
2023/10/12 06:36:16;;;;;;;19.08;7.80;;;;;;;12.35;58.47;96117.06;5007587;28;20064;-74
2023/10/12 06:46:48;;;;;;;22.13;8.00;;;;;;;12.19;58.12;96083.47;5013277;28;20103;-76
2023/10/12 06:49:21;;;;;;;23.38;9.10;;;;;;;12.32;58.35;96108.78;4991344;28;20033;-76
2023/10/12 06:52:00;;;;;;;22.63;8.13;;;;;;;12.37;58.16;96096.28;4991442;28;20806;-76
2023/10/12 06:54:49;;;;;;;24.33;9.02;;;;;;;12.56;58.08;96117.91;5004827;28;20042;-75
2023/10/12 06:59:52;;;;;;;22.10;9.27;;;;;;;12.38;58.35;96099.75;5013622;28;20526;-76
2023/10/12 07:02:25;;;;;;;29.67;9.57;;;;;;;12.50;58.12;96105.66;5000984;28;20198;-77
2023/10/12 07:04:54;;;;;;;22.67;9.25;;;;;;;12.54;58.12;96111.22;5005030;28;20175;-76
2023/10/12 07:07:27;;;;;;;21.85;9.23;;;;;;;12.54;57.84;96098.72;4992219;28;20041;-74
2023/10/12 07:12:41;;;;;;;20.77;8.73;;;;;;;12.56;58.66;96122.41;5010676;28;20074;-74
2023/10/12 07:15:11;;;;;;;23.45;9.00;;;;;;;12.58;58.55;96125.63;4980278;28;20049;-75
2023/10/12 07:17:37;;;;;;;21.95;8.93;;;;;;;12.63;58.12;96112.31;5013290;28;21123;-75
2023/10/12 07:20:06;;;;;;;24.02;9.82;;;;;;;12.75;58.27;96121.66;5016065;28;20093;-74
2023/10/12 07:22:36;;;;;;;28.67;9.00;;;;;;;12.72;57.79;96097.44;5010370;28;20120;-74
2023/10/12 07:25:04;;;;;;;22.50;8.05;;;;;;;12.93;57.76;96108.91;4995842;28;20060;-75
2023/10/12 07:27:41;;;;;;;28.98;9.98;;;;;;;13.00;57.51;96117.41;4990435;28;20427;-74
2023/10/12 07:30:30;;;;;;;22.70;9.65;;;;;;;12.75;57.98;96091.56;5014137;28;20049;-73
2023/10/12 07:33:00;;;;;;;24.75;9.45;;;;;;;13.04;57.84;96126.50;5013354;28;20083;-74
2023/10/12 07:35:34;;;;;;;21.52;9.13;;;;;;;13.16;57.62;96118.25;5014486;28;20038;-74
2023/10/12 07:38:14;;;;;;;20.38;8.63;;;;;;;13.08;57.99;96114.22;4997528;28;20048;-74
2023/10/12 07:40:52;;;;;;;21.92;8.95;;;;;;;13.21;57.61;96112.91;4998869;28;20041;-74
2023/10/12 07:43:18;;;;;;;40.85;9.70;;;;;;;13.10;57.53;96098.78;4992812;28;20485;-74
2023/10/12 07:45:51;;;;;;;27.02;9.63;;;;;;;13.12;57.61;96118.75;5010072;28;20504;-74
2023/10/12 07:48:31;;;;;;;20.77;9.07;;;;;;;12.91;58.02;96090.53;4998111;28;20208;-73
2023/10/12 07:51:15;;;;;;;19.15;8.25;;;;;;;12.79;57.82;96055.38;5010599;28;20053;-74
2023/10/12 07:53:44;;;;;;;16.27;7.93;;;;;;;13.06;57.58;96063.91;5012368;28;20060;-76
2023/10/12 07:56:15;;;;;;;17.90;8.35;;;;;;;13.23;57.11;96089.47;5009347;28;20041;-74
2023/10/12 07:58:57;;;;;;;23.35;8.60;;;;;;;13.46;57.16;96108.38;5003200;28;20460;-74
2023/10/12 08:01:39;;;;;;;19.55;7.82;;;;;;;13.51;56.83;96089.72;4983083;28;20042;-77
2023/10/12 08:04:19;;;;;;;21.08;8.18;;;;;;;13.49;56.29;96065.22;4975295;28;20060;-76
2023/10/12 08:06:47;;;;;;;22.08;8.57;;;;;;;13.62;56.42;96092.38;4955611;28;20041;-77
2023/10/12 08:09:39;;;;;;;23.20;8.07;;;;;;;13.54;56.47;96072.38;4977954;28;20127;-76
2023/10/12 08:12:24;;;;;;;27.13;8.05;;;;;;;13.82;56.44;96093.09;4985769;28;20391;-76
2023/10/12 08:14:53;;;;;;;25.02;9.25;;;;;;;13.90;55.88;96092.53;4982506;28;20038;-76
2023/10/12 08:17:26;;;;;;;25.05;9.73;;;;;;;13.80;56.23;96081.94;4986365;28;20566;-76
2023/10/12 08:20:43;;;;;;;17.77;8.68;;;;;;;13.86;56.34;96078.19;4976753;28;20365;-76
2023/10/12 08:22:43;;;;;;;18.35;9.05;;;;;;;13.99;55.75;96068.78;4993713;28;20467;-76
2023/10/12 08:25:08;;;;;;;16.75;9.00;;;;;;;13.49;55.41;95987.94;4988659;28;20048;-75
2023/10/12 08:27:52;;;;;;;23.27;9.15;;;;;;;13.77;56.02;96055.00;4969016;28;20054;-75
2023/10/12 08:30:23;;;;;;;20.00;8.40;;;;;;;13.95;55.80;96073.09;4985749;28;20076;-76
2023/10/12 08:33:08;;;;;;;24.42;9.35;;;;;;;14.13;55.69;96075.13;4998990;28;20524;-76
2023/10/12 08:35:39;;;;;;;24.77;9.85;;;;;;;14.08;55.51;96042.34;5007234;28;20121;-76
2023/10/12 08:38:11;;;;;;;17.70;8.45;;;;;;;14.20;55.11;96026.81;4990520;28;20092;-76
2023/10/12 08:40:53;;;;;;;29.30;9.00;;;;;;;14.40;54.70;96044.63;4993571;28;20033;-76
2023/10/12 08:43:34;;;;;;;20.73;8.75;;;;;;;14.28;54.61;96031.56;5004170;28;20707;-76
2023/10/12 08:46:00;;;;;;;22.58;8.02;;;;;;;14.29;54.67;96033.16;4988704;28;20529;-77
2023/10/12 08:48:26;;;;;;;24.80;8.07;;;;;;;13.95;54.76;95985.09;5005398;28;20132;-76
2023/10/12 08:50:58;;;;;;;24.63;8.70;;;;;;;14.20;54.89;96002.78;4972455;28;20569;-75
2023/10/12 08:53:26;;;;;;;20.48;9.77;;;;;;;14.60;54.69;96047.16;4987370;28;20087;-76
2023/10/12 08:55:52;;;;;;;21.92;8.02;;;;;;;14.39;54.43;96019.78;4981339;28;20570;-75
2023/10/12 08:58:39;;;;;;;19.50;7.90;;;;;;;14.74;54.28;96033.97;4987331;28;20037;-77
2023/10/12 09:01:07;;;;;;;24.85;8.02;;;;;;;14.80;54.45;96036.31;4981344;28;20667;-77
2023/10/12 09:03:46;;;;;;;16.95;6.70;;;;;;;14.75;54.22;96022.22;5000366;28;20427;-76
2023/10/12 09:06:53;;;;;;;21.08;7.75;;;;;;;14.65;53.71;95986.50;5002502;28;20572;-77
2023/10/12 09:09:48;;;;;;;18.10;7.28;;;;;;;14.77;53.98;96006.72;5008518;28;20125;-77
2023/10/12 09:12:01;;;;;;;19.73;7.85;;;;;;;14.84;53.26;95997.31;5008825;28;20653;-76
2023/10/12 09:14:26;;;;;;;12.80;7.40;;;;;;;15.05;53.21;96016.63;4996484;28;20049;-76
2023/10/12 09:16:54;;;;;;;23.95;7.18;;;;;;;14.95;53.16;96000.69;4995475;28;20042;-77
2023/10/12 09:19:28;;;;;;;27.45;7.28;;;;;;;15.13;53.74;96008.00;5004905;28;20119;-77
2023/10/12 09:21:59;;;;;;;20.15;7.47;;;;;;;15.22;53.13;96011.66;4990485;28;20077;-76
2023/10/12 09:24:28;;;;;;;15.95;6.68;;;;;;;15.12;52.84;95974.34;4992688;28;20588;-76
2023/10/12 09:27:11;;;;;;;26.45;7.15;;;;;;;15.25;52.60;95986.25;4999447;28;20064;-77
2023/10/12 09:29:57;;;;;;;19.83;7.43;;;;;;;15.41;52.38;95985.78;5002960;28;20065;-77
2023/10/12 09:32:25;;;;;;;14.18;7.07;;;;;;;15.31;52.45;95961.06;4998802;28;20806;-76
2023/10/12 09:37:22;;;;;;;24.70;7.68;;;;;;;15.56;51.92;95989.41;4984143;28;20057;-77
2023/10/12 09:39:48;;;;;;;23.40;8.38;;;;;;;15.48;51.47;95955.25;5014597;28;20041;-77
2023/10/12 09:42:44;;;;;;;24.63;7.57;;;;;;;15.66;51.78;95967.91;5011061;28;20485;-77
2023/10/12 09:45:10;;;;;;;23.85;7.07;;;;;;;15.62;51.65;95965.00;4983053;28;20061;-78
2023/10/12 09:47:44;;;;;;;25.25;7.88;;;;;;;15.49;51.85;95940.78;5009498;28;20114;-77
2023/10/12 09:50:13;;;;;;;20.25;6.93;;;;;;;16.11;51.51;95931.72;5012303;28;20052;-78
2023/10/12 09:52:46;;;;;;;19.30;7.28;;;;;;;17.12;49.40;95945.38;5020904;28;20045;-78
2023/10/12 09:55:24;;;;;;;31.90;7.07;;;;;;;18.35;46.60;95954.13;4993343;28;20544;-77
2023/10/12 09:57:51;;;;;;;21.13;6.63;;;;;;;19.36;43.64;95926.66;5002091;28;20599;-77
2023/10/12 10:00:28;;;;;;;21.83;7.65;;;;;;;20.18;41.27;95903.56;4987366;28;20125;-78
2023/10/12 10:03:03;;;;;;;18.73;6.78;;;;;;;21.31;39.67;95878.00;5013453;28;20509;-78
2023/10/12 10:08:26;;;;;;;20.95;5.90;;;;;;;23.64;35.91;95931.75;5027994;28;20084;-77
2023/10/12 10:10:57;;;;;;;19.65;6.97;;;;;;;24.23;34.43;95901.44;5024936;28;20493;-77
2023/10/12 10:13:47;;;;;;;12.20;5.32;;;;;;;24.79;33.28;95898.75;5016010;28;20041;-78
2023/10/12 10:16:17;;;;;;;18.88;6.78;;;;;;;25.23;33.03;95927.47;4990492;28;20138;-78
2023/10/12 10:18:47;;;;;;;22.08;6.55;;;;;;;25.84;32.07;95891.72;5000268;28;20068;-77
2023/10/12 10:21:19;;;;;;;19.35;6.88;;;;;;;26.52;31.09;95913.03;5014203;28;20062;-78
2023/10/12 10:23:48;;;;;;;18.83;6.55;;;;;;;26.52;30.24;95870.31;5021278;28;20034;-77
2023/10/12 10:26:30;;;;;;;11.80;5.20;;;;;;;26.87;29.51;95897.41;4984021;28;20046;-78
2023/10/12 10:29:05;;;;;;;16.52;5.30;;;;;;;26.73;29.26;95842.72;4991390;28;20144;-76
2023/10/12 10:31:41;;;;;;;21.48;6.05;;;;;;;27.31;28.84;95871.75;4956100;28;20050;-77
2023/10/12 10:34:09;;;;;;;17.25;5.57;;;;;;;27.18;28.63;95827.56;4989973;28;20080;-78
2023/10/12 10:36:35;;;;;;;15.02;6.13;;;;;;;27.31;28.65;95894.34;4983941;28;20055;-78
2023/10/12 10:39:08;;;;;;;21.02;6.22;;;;;;;26.72;28.99;95853.94;4999589;28;20408;-76
2023/10/12 10:41:46;;;;;;;21.73;6.50;;;;;;;26.79;29.00;95854.09;5007619;28;20049;-77
2023/10/12 10:44:16;;;;;;;16.75;6.15;;;;;;;27.34;28.99;95877.25;4994390;28;20050;-77
2023/10/12 10:46:47;;;;;;;21.53;6.43;;;;;;;27.51;28.52;95856.91;5001318;28;20038;-75
2023/10/12 10:49:16;;;;;;;21.65;6.40;;;;;;;27.76;28.54;95865.50;5006271;28;20366;-77
2023/10/12 10:51:55;;;;;;;13.32;5.80;;;;;;;27.76;28.77;95849.94;5014629;28;20045;-77
2023/10/12 10:54:22;;;;;;;18.38;6.63;;;;;;;27.59;28.74;95864.84;5014012;28;20055;-76
2023/10/12 10:56:48;;;;;;;12.73;5.72;;;;;;;27.59;28.54;95831.38;5010263;28;20050;-77
2023/10/12 10:59:17;;;;;;;14.05;5.43;;;;;;;27.87;28.40;95852.78;5008700;28;20139;-77
2023/10/12 11:01:48;;;;;;;16.10;5.70;;;;;;;27.90;28.13;95824.81;5013337;28;20041;-76
2023/10/12 11:05:00;;;;;;;;;;;;;;;27.77;28.33;95842.56;5010795;28;20550;-77
2023/10/12 11:07:13;;;;;;;12.60;5.25;;;;;;;27.78;28.07;95835.91;5012327;28;20248;-75
2023/10/12 11:12:17;;;;;;;16.65;6.07;;;;;;;27.12;28.66;95772.66;5010247;28;20037;-76
2023/10/12 11:17:40;;;;;;;18.05;5.60;;;;;;;27.36;28.46;95787.03;5016248;28;20056;-78
2023/10/12 11:20:29;;;;;;;26.90;6.50;;;;;;;27.36;28.67;95812.31;5016761;28;20041;-76
2023/10/12 11:22:59;;;;;;;15.35;5.68;;;;;;;27.73;28.35;95804.34;4985831;28;20515;-75
2023/10/12 11:25:28;;;;;;;14.30;5.47;;;;;;;27.30;28.39;95785.78;5010544;28;20147;-75
2023/10/12 11:27:53;;;;;;;20.98;5.82;;;;;;;27.31;28.80;95762.84;5009885;28;20515;-76
2023/10/12 11:30:34;;;;;;;15.32;5.10;;;;;;;27.48;28.41;95757.63;5021071;28;20109;-75
2023/10/12 11:33:06;;;;;;;19.58;5.50;;;;;;;27.81;28.15;95781.47;4987856;28;20057;-77
2023/10/12 11:35:43;;;;;;;15.38;6.10;;;;;;;27.49;28.45;95766.59;4994928;28;20464;-77
2023/10/12 11:38:17;;;;;;;12.18;5.57;;;;;;;27.45;28.61;95763.03;5009271;28;20049;-77
2023/10/12 11:40:44;;;;;;;16.85;5.82;;;;;;;27.52;28.51;95784.94;5007865;28;20045;-77
2023/10/12 11:43:10;;;;;;;22.00;5.20;;;;;;;27.75;28.09;95780.22;4993419;28;20052;-78
2023/10/12 11:45:36;;;;;;;16.50;5.50;;;;;;;27.54;28.49;95769.81;5005549;28;20041;-77
2023/10/12 11:48:22;;;;;;;14.75;5.82;;;;;;;27.22;29.13;95773.97;4994508;28;20511;-78
2023/10/12 11:50:48;;;;;;;16.70;5.53;;;;;;;26.97;28.89;95751.81;4990432;28;20519;-78
2023/10/12 11:53:17;;;;;;;16.45;4.63;;;;;;;27.05;28.69;95717.31;5008659;28;20042;-78
2023/10/12 11:55:44;;;;;;;19.13;5.32;;;;;;;27.20;28.68;95749.03;5003939;28;20552;-78
2023/10/12 11:58:13;;;;;;;21.00;5.13;;;;;;;26.78;29.03;95724.63;5005550;28;20049;-78
2023/10/12 12:00:44;;;;;;;18.88;5.25;;;;;;;27.02;29.39;95765.09;5000885;28;20045;-78
2023/10/12 12:03:11;;;;;;;;;;;;;;;27.15;30.16;95752.09;5011488;28;20060;-78
2023/10/12 12:05:37;;;;;;;16.60;5.55;;;;;;;27.15;29.00;95724.88;4986298;28;21268;-77
2023/10/12 12:08:07;;;;;;;22.92;8.18;;;;;;;27.44;29.55;95713.22;4924455;28;20101;-77
2023/10/12 12:10:53;;;;;;;19.90;6.35;;;;;;;27.81;29.02;95748.78;4929418;28;20143;-77
2023/10/12 12:13:20;;;;;;;14.00;5.07;;;;;;;27.64;28.31;95739.19;4968405;28;20045;-77
2023/10/12 12:15:49;;;;;;;12.63;5.22;;;;;;;28.03;27.98;95747.88;4994239;28;20699;-78
2023/10/12 12:20:44;;;;;;;17.67;5.45;;;;;;;28.29;27.59;95727.16;5007299;28;20084;-78
2023/10/12 12:23:12;;;;;;;21.33;5.38;;;;;;;28.36;27.91;95722.56;4993386;28;20038;-78
2023/10/12 12:25:41;;;;;;;20.70;5.30;;;;;;;28.01;27.59;95708.50;5003272;28;20488;-78
2023/10/12 12:28:08;;;;;;;15.57;4.93;;;;;;;27.71;27.77;95705.03;4979995;28;20034;-77
2023/10/12 12:30:36;;;;;;;18.48;5.10;;;;;;;27.59;28.41;95714.22;5009316;28;20370;-77
2023/10/12 12:33:15;;;;;;;14.57;5.25;;;;;;;27.93;27.89;95723.19;5007058;28;20137;-78
2023/10/12 12:35:41;;;;;;;10.85;4.30;;;;;;;28.07;27.76;95720.66;4986138;28;20227;-78
2023/10/12 12:38:22;;;;;;;14.80;4.30;;;;;;;28.26;27.44;95687.78;4987923;28;20291;-77
2023/10/12 12:40:48;;;;;;;14.13;4.13;;;;;;;27.91;27.83;95695.56;4990006;28;20056;-78
2023/10/12 12:43:13;;;;;;;11.88;4.45;;;;;;;27.70;28.19;95700.72;5004602;28;20034;-76
2023/10/12 12:45:40;;;;;;;11.18;4.10;;;;;;;28.25;27.75;95702.56;4994083;28;20061;-75
2023/10/12 12:48:06;;;;;;;9.55;4.38;;;;;;;28.27;27.55;95694.03;4998761;28;20038;-76
2023/10/12 12:50:32;;;;;;;10.27;4.32;;;;;;;28.47;27.38;95711.75;5003217;28;20267;-76
2023/10/12 12:52:57;;;;;;;13.95;4.85;;;;;;;28.31;27.58;95697.56;5003532;28;20504;-76
2023/10/12 12:55:27;;;;;;;20.90;5.65;;;;;;;27.95;28.14;95672.63;4992410;28;20092;-76
2023/10/12 12:57:56;;;;;;;11.77;4.70;;;;;;;28.32;27.68;95666.41;5007968;28;20072;-77
2023/10/12 13:00:22;;;;;;;22.88;6.28;;;;;;;28.57;27.46;95683.00;4999181;28;20119;-77
2023/10/12 13:02:48;;;;;;;10.18;4.40;;;;;;;28.27;27.55;95669.47;5009697;28;20822;-77
2023/10/12 13:05:14;;;;;;;10.90;4.30;;;;;;;28.52;27.47;95680.63;5017393;28;20147;-78
2023/10/12 13:07:45;;;;;;;12.73;4.13;;;;;;;28.63;27.62;95674.09;5000598;28;20446;-77
2023/10/12 13:10:14;;;;;;;17.98;4.55;;;;;;;28.68;27.56;95686.63;4994429;28;20066;-78
2023/10/12 13:12:42;;;;;;;12.65;3.85;;;;;;;28.67;27.78;95661.28;4949332;28;20567;-77
2023/10/12 13:15:11;;;;;;;12.93;4.68;;;;;;;28.75;27.59;95681.22;4980302;28;20046;-77
2023/10/12 13:17:37;;;;;;;18.17;4.25;;;;;;;28.74;27.27;95661.31;4998110;28;20253;-77
2023/10/12 13:20:03;;;;;;;11.13;4.00;;;;;;;28.73;27.20;95648.84;4980321;28;20088;-79
2023/10/12 13:22:29;;;;;;;14.02;3.50;;;;;;;28.92;27.13;95672.38;4994333;28;20356;-77
2023/10/12 13:24:56;;;;;;;11.90;4.82;;;;;;;28.76;27.20;95652.78;4974119;28;20436;-79
2023/10/12 13:27:32;;;;;;;16.48;4.80;;;;;;;28.92;26.94;95649.75;4998747;28;20349;-79
2023/10/12 13:30:02;;;;;;;13.18;4.10;;;;;;;28.63;26.66;95643.28;5001197;28;20436;-79
2023/10/12 13:32:27;;;;;;;11.95;4.53;;;;;;;28.86;26.48;95646.59;4997304;28;20477;-78
2023/10/12 13:34:57;;;;;;;13.90;4.75;;;;;;;28.92;26.62;95636.09;4995804;28;20057;-80